首页
METAR-TAF:

METAR-TAF

机场 :

菲利普戈尔德森国际机场

伯利兹, 伯利兹

纬度: 17-32N, 经度: 088-18W, 海拔: 5米

当前天气观测

该预报发布于38分钟前的11:00 UTC
风速4节,风向西
温度 22°C
湿度 100%
气压 1013 hPa
能見度: 2000
多云层高于200英尺
轻雾

METAR: MZBZ 241100Z 27004KT 2000 BR BKN002 22/22 A2992 Q1013 NOSIG

时间: 05:38 (11:38 UTC)

预报

该预报发布于8小时和38分钟前的03:00 UTC
预报有效从24日的 06点(UTC)到 25日的 06点(UTC)
风速4节,风向西转西北
几率 30%
从 24日的 10点(UTC)到 24日的 14点(UTC)
能見度: 0400
多云层高于400英尺
几率 30%
从 24日的 12点(UTC)到 24日的 20点(UTC)
能見度: 5000
多云层高于1500英尺
成为
从 24日的 16点(UTC)到 24日的 18点(UTC)
风速5节,风向
几率 30%
从 24日的 00点(UTC)到 24日的 06点(UTC)
能見度: 5000
多云层高于1500英尺
阵雨

TAF: MZBZ 240300Z 2406/2506 30004KT PROB30 2410/2414 0400 FG BKN004 PROB30 2412/2420 5000 BKN015 BECMG 2416/2418 09005KT PROB30 2400/2406 5000 SHRA BKN015

超过4000个机场的气象观测和天气预报(METAR&TAF报告)。

可查询的气象台以黄色和红色小点在地图上表示。

将鼠标移到小点上方,可查看气象台名称。

然后点击查看天气观测和预报。

如需切换地图:点击带黑十字的绿色按钮放大地图;点击带横线的绿色按钮缩小地图;或者点击绿色箭头查看邻近地区的地图。


METAR-TAF: